Time;durP1;ratioP1;P1;durP2;ratioP2;P2;SDS_P1;SDS_P2;PMS_P1;PMS_P2;Temp;Humidity;BMP_temperature;BMP_pressure;BME280_temperature;BME280_humidity;BME280_pressure;Samples;Min_cycle;Max_cycle;Signal;HPM_P1;HPM_P2
2020/12/09 00:00:10;;;;;;;19.12;10.03;;;;;;;0.93;84.05;96921.71;1783125;80;21165;-76
2020/12/09 00:02:39;;;;;;;23.00;13.05;;;;;;;0.97;83.86;96922.45;1782969;80;21129;-75
2020/12/09 00:05:12;;;;;;;23.38;14.05;;;;;;;0.97;83.90;96928.94;1777071;80;21149;-76
2020/12/09 00:07:40;;;;;;;14.00;7.35;;;;;;;0.91;84.11;96926.98;1756040;82;21148;-75
2020/12/09 00:10:08;;;;;;;19.12;10.88;;;;;;;0.92;84.18;96927.84;1755812;82;21120;-76
2020/12/09 00:12:35;;;;;;;24.02;14.87;;;;;;;0.86;84.32;96934.14;1755977;81;22238;-75
2020/12/09 00:15:07;;;;;;;27.32;14.65;;;;;;;0.75;84.67;96929.87;1754333;81;21546;-75
2020/12/09 00:17:34;;;;;;;25.68;16.12;;;;;;;0.73;84.51;96932.97;1752746;82;21139;-74
2020/12/09 00:20:04;;;;;;;22.32;13.75;;;;;;;0.75;84.46;96938.48;1752011;80;21626;-74
2020/12/09 00:22:36;;;;;;;24.15;15.43;;;;;;;0.81;84.21;96937.37;1688831;85;21156;-76
2020/12/09 00:25:06;;;;;;;17.25;9.25;;;;;;;0.86;84.14;96934.58;1689928;83;21149;-76
2020/12/09 00:27:36;;;;;;;23.67;15.78;;;;;;;0.86;84.03;96931.55;1770471;81;21149;-76
2020/12/09 00:30:08;;;;;;;23.45;14.38;;;;;;;0.84;83.91;96937.25;1771357;81;21190;-76
2020/12/09 00:32:37;;;;;;;24.80;14.15;;;;;;;0.88;83.59;96944.45;1766635;81;21335;-75
2020/12/09 00:35:08;;;;;;;18.73;11.70;;;;;;;0.93;83.63;96936.84;1752599;82;21282;-76
2020/12/09 00:37:35;;;;;;;18.30;11.28;;;;;;;0.93;83.27;96947.66;1751774;82;21140;-74
2020/12/09 00:40:05;;;;;;;16.52;9.38;;;;;;;0.88;83.12;96943.97;1754265;80;21181;-76
2020/12/09 00:42:34;;;;;;;13.08;7.87;;;;;;;0.79;83.34;96949.56;1759204;81;21138;-75
2020/12/09 00:45:07;;;;;;;14.60;8.68;;;;;;;0.65;83.81;96947.56;1735563;81;21553;-75
2020/12/09 00:47:34;;;;;;;10.98;5.75;;;;;;;0.57;83.80;96945.75;1734738;81;21160;-75
2020/12/09 00:52:45;;;;;;;20.60;11.95;;;;;;;0.43;83.97;96938.56;1760507;81;21164;-75
2020/12/09 00:55:15;;;;;;;21.03;13.23;;;;;;;0.38;83.53;96925.78;1760719;81;21136;-75
2020/12/09 00:57:45;;;;;;;18.45;12.20;;;;;;;0.39;83.79;96916.27;1761143;81;21157;-76
2020/12/09 01:00:13;;;;;;;21.45;12.60;;;;;;;0.48;83.89;96919.77;1760434;81;21147;-77
2020/12/09 01:02:43;;;;;;;17.82;12.45;;;;;;;0.52;83.80;96920.02;1761560;81;21747;-76
2020/12/09 01:05:12;;;;;;;18.75;12.23;;;;;;;0.59;83.61;96916.70;1761889;81;22354;-75
2020/12/09 01:07:40;;;;;;;20.32;12.68;;;;;;;0.60;83.38;96918.39;1760740;81;21116;-75
2020/12/09 01:10:09;;;;;;;19.73;12.55;;;;;;;0.61;83.25;96922.21;1760528;80;21132;-74
2020/12/09 01:12:41;;;;;;;23.30;13.72;;;;;;;0.68;82.99;96916.31;1760668;81;21168;-76
2020/12/09 01:15:09;;;;;;;20.57;13.58;;;;;;;0.68;82.94;96928.45;1781280;80;21147;-77
2020/12/09 01:17:37;;;;;;;25.80;13.68;;;;;;;0.70;82.66;96931.80;1764702;80;21144;-74
2020/12/09 01:20:06;;;;;;;21.82;12.55;;;;;;;0.75;82.82;96926.80;1735999;81;21177;-74
2020/12/09 01:22:35;;;;;;;22.37;14.07;;;;;;;0.80;82.71;96922.71;1760761;81;21113;-76
2020/12/09 01:25:04;;;;;;;25.05;14.83;;;;;;;0.87;82.62;96924.59;1761312;81;21155;-75
2020/12/09 01:27:31;;;;;;;24.55;15.23;;;;;;;0.89;82.48;96922.77;1785102;80;21283;-75
2020/12/09 01:29:58;;;;;;;28.35;17.75;;;;;;;0.92;82.46;96915.69;1769588;80;21140;-75
2020/12/09 01:32:26;;;;;;;29.20;16.63;;;;;;;0.97;82.18;96909.00;1735447;81;21155;-76
2020/12/09 01:34:54;;;;;;;33.65;16.67;;;;;;;0.97;82.03;96915.95;1760446;81;21217;-76
2020/12/09 01:37:21;;;;;;;28.85;16.62;;;;;;;0.95;81.79;96909.52;1761086;81;21143;-74
2020/12/09 01:39:49;;;;;;;25.52;15.83;;;;;;;0.94;81.85;96909.13;1711625;81;21176;-75
2020/12/09 01:42:17;;;;;;;29.12;17.00;;;;;;;0.91;81.48;96894.53;1756114;80;21136;-76
2020/12/09 01:44:45;;;;;;;28.17;16.37;;;;;;;0.89;81.50;96895.52;1753354;80;21129;-76
2020/12/09 01:47:13;;;;;;;25.60;13.75;;;;;;;0.83;81.47;96886.25;1754557;81;21574;-76
2020/12/09 01:49:41;;;;;;;31.70;17.05;;;;;;;0.74;81.38;96877.58;1754921;81;21102;-75
2020/12/09 01:52:11;;;;;;;29.10;16.77;;;;;;;0.77;81.48;96888.66;1755981;82;21155;-76
2020/12/09 01:54:38;;;;;;;27.62;15.53;;;;;;;0.81;81.56;96894.55;1754534;81;21164;-76
2020/12/09 01:57:09;;;;;;;29.95;16.45;;;;;;;0.83;81.46;96893.21;1754879;81;21219;-77
2020/12/09 01:59:39;;;;;;;29.37;16.48;;;;;;;0.88;81.54;96890.77;1751786;82;21159;-75
2020/12/09 02:02:08;;;;;;;30.10;17.37;;;;;;;0.92;81.51;96892.33;1752464;82;21161;-74
2020/12/09 02:04:37;;;;;;;30.70;15.98;;;;;;;0.89;81.38;96890.33;1753207;82;21132;-76
2020/12/09 02:07:06;;;;;;;26.37;14.30;;;;;;;0.91;81.53;96884.63;1751841;82;21153;-76
2020/12/09 02:09:34;;;;;;;29.37;15.50;;;;;;;0.93;81.24;96874.55;1752009;82;21147;-76
2020/12/09 02:12:02;;;;;;;24.95;14.47;;;;;;;0.89;81.21;96876.89;1687728;85;21741;-76
2020/12/09 02:14:29;;;;;;;25.62;14.90;;;;;;;0.88;81.32;96871.30;1689632;83;21590;-75
2020/12/09 02:16:59;;;;;;;30.85;14.85;;;;;;;0.94;81.36;96875.38;1752091;82;21164;-76
2020/12/09 02:19:27;;;;;;;28.85;17.73;;;;;;;0.92;81.12;96885.02;1752742;82;21180;-75
2020/12/09 02:21:59;;;;;;;29.80;16.77;;;;;;;0.93;81.14;96893.16;1752264;82;21159;-75
2020/12/09 02:24:26;;;;;;;33.53;18.12;;;;;;;0.93;81.24;96888.83;1748873;82;21121;-76
2020/12/09 02:26:53;;;;;;;32.13;18.55;;;;;;;0.95;81.26;96888.75;1687781;85;21209;-76
2020/12/09 02:29:23;;;;;;;29.72;17.55;;;;;;;0.95;81.04;96882.73;1688968;83;21180;-76
2020/12/09 02:31:51;;;;;;;39.85;18.15;;;;;;;0.96;81.10;96888.31;1690854;85;21128;-75
2020/12/09 02:34:18;;;;;;;30.35;15.23;;;;;;;0.88;80.71;96884.28;1751837;82;21119;-74
2020/12/09 02:36:45;;;;;;;27.75;16.87;;;;;;;0.77;80.60;96880.05;1752374;82;21512;-76
2020/12/09 02:39:13;;;;;;;26.15;15.88;;;;;;;0.71;80.55;96882.89;1752233;82;21594;-74
2020/12/09 02:41:40;;;;;;;27.35;14.75;;;;;;;0.65;80.58;96882.70;1753045;82;21148;-74
2020/12/09 02:44:07;;;;;;;28.85;13.75;;;;;;;0.59;80.52;96884.28;1765529;80;21474;-75
2020/12/09 02:46:35;;;;;;;21.93;13.38;;;;;;;0.51;80.55;96883.31;1788557;80;21274;-74
2020/12/09 02:49:02;;;;;;;24.50;13.83;;;;;;;0.48;80.64;96881.30;1789273;80;21136;-73
2020/12/09 02:51:30;;;;;;;26.35;14.38;;;;;;;0.45;80.46;96880.55;1789431;80;21708;-75
2020/12/09 02:53:57;;;;;;;24.85;12.73;;;;;;;0.40;80.55;96882.48;1789164;80;21132;-73
2020/12/09 02:56:26;;;;;;;22.35;13.10;;;;;;;0.41;80.65;96884.64;1788695;80;21599;-75
2020/12/09 02:58:53;;;;;;;21.68;13.30;;;;;;;0.43;80.64;96874.58;1789624;80;21179;-76
2020/12/09 03:01:20;;;;;;;20.48;12.05;;;;;;;0.46;80.66;96866.65;1764854;80;21163;-76
2020/12/09 03:03:48;;;;;;;17.67;10.35;;;;;;;0.42;80.61;96866.84;1758517;80;21191;-73
2020/12/09 03:06:16;;;;;;;15.15;9.70;;;;;;;0.39;80.99;96866.53;1787465;80;21112;-75
2020/12/09 03:08:43;;;;;;;16.82;10.10;;;;;;;0.32;81.00;96874.66;1781458;80;21124;-75
2020/12/09 03:11:11;;;;;;;19.77;11.90;;;;;;;0.23;81.44;96879.30;1757468;81;21117;-74
2020/12/09 03:13:39;;;;;;;20.37;12.28;;;;;;;0.18;80.76;96876.55;1758665;80;21160;-73
2020/12/09 03:16:06;;;;;;;18.65;10.93;;;;;;;0.14;81.04;96875.36;1788509;80;21096;-74
2020/12/09 03:18:33;;;;;;;15.10;9.20;;;;;;;0.09;80.87;96872.57;1788324;80;21160;-76
2020/12/09 03:21:01;;;;;;;21.43;13.07;;;;;;;0.09;80.77;96873.87;1789028;80;21136;-75
2020/12/09 03:23:30;;;;;;;19.98;12.58;;;;;;;0.09;80.89;96870.81;1773207;80;21553;-75
2020/12/09 03:25:57;;;;;;;19.27;10.78;;;;;;;0.11;80.73;96874.19;1757494;82;21209;-74
2020/12/09 03:28:25;;;;;;;17.77;10.45;;;;;;;0.10;80.94;96874.27;1758695;80;21587;-76
2020/12/09 03:30:52;;;;;;;17.50;10.60;;;;;;;0.11;80.68;96880.67;1730369;82;21165;-76
2020/12/09 03:33:22;;;;;;;13.32;8.05;;;;;;;0.11;80.76;96867.70;1757571;82;21154;-75
2020/12/09 03:35:49;;;;;;;13.55;7.85;;;;;;;0.06;80.65;96868.37;1757930;82;21145;-74
2020/12/09 03:38:17;;;;;;;14.63;9.20;;;;;;;0.03;80.91;96865.06;1758212;81;21170;-73
2020/12/09 03:40:45;;;;;;;15.43;9.83;;;;;;;0.02;80.95;96860.31;1731201;82;21166;-75
2020/12/09 03:43:12;;;;;;;14.87;9.07;;;;;;;0.03;80.69;96859.88;1729384;81;21116;-74
2020/12/09 03:45:40;;;;;;;16.52;9.65;;;;;;;0.03;81.00;96856.82;1760190;81;21546;-75
2020/12/09 03:48:07;;;;;;;15.00;9.73;;;;;;;0.06;80.92;96867.50;1760697;81;21303;-74
2020/12/09 03:50:37;;;;;;;12.70;6.93;;;;;;;0.04;80.85;96870.64;1760023;81;21679;-75
2020/12/09 03:53:05;;;;;;;17.23;8.73;;;;;;;0.02;81.23;96871.15;1743214;81;21173;-76
2020/12/09 03:55:32;;;;;;;6.67;3.33;;;;;;;-0.09;81.30;96870.30;1753963;81;21190;-75
2020/12/09 03:58:01;;;;;;;12.30;7.60;;;;;;;-0.16;82.13;96868.41;1730691;82;21664;-75
2020/12/09 04:00:32;;;;;;;14.33;8.97;;;;;;;-0.30;82.16;96865.09;1732294;81;21575;-74
2020/12/09 04:03:00;;;;;;;11.93;7.17;;;;;;;-0.35;82.10;96869.16;1730595;82;21137;-75
2020/12/09 04:05:27;;;;;;;14.23;8.73;;;;;;;-0.34;81.71;96873.88;1730182;83;21315;-74
2020/12/09 04:07:54;;;;;;;14.60;8.87;;;;;;;-0.38;82.99;96870.56;1733221;81;21089;-74
2020/12/09 04:10:22;;;;;;;12.57;6.53;;;;;;;-0.40;82.84;96872.37;1748943;81;21136;-77
2020/12/09 04:12:49;;;;;;;12.13;7.20;;;;;;;-0.39;82.12;96870.17;1730312;82;21152;-75
2020/12/09 04:15:17;;;;;;;11.80;7.53;;;;;;;-0.41;82.47;96869.84;1758842;81;21290;-75
2020/12/09 04:17:46;;;;;;;15.37;8.20;;;;;;;-0.41;82.17;96868.55;1757583;81;21081;-75
2020/12/09 04:20:16;;;;;;;11.17;6.33;;;;;;;-0.43;82.50;96869.92;1730164;82;21574;-75
2020/12/09 04:22:44;;;;;;;12.13;7.83;;;;;;;-0.43;82.45;96863.45;1730499;83;21546;-73
2020/12/09 04:25:12;;;;;;;11.43;7.00;;;;;;;-0.49;83.51;96864.53;1734392;81;21139;-76
2020/12/09 04:27:39;;;;;;;13.37;8.20;;;;;;;-0.51;82.93;96862.91;1714103;83;21586;-75
2020/12/09 04:30:06;;;;;;;8.83;5.43;;;;;;;-0.51;83.16;96862.45;1730380;82;21473;-74
2020/12/09 04:32:35;;;;;;;7.80;4.70;;;;;;;-0.49;83.27;96861.08;1730956;81;21302;-76
2020/12/09 04:35:04;;;;;;;12.43;8.60;;;;;;;-0.52;82.93;96864.64;1730904;81;21136;-75
2020/12/09 04:37:31;;;;;;;12.80;8.50;;;;;;;-0.53;83.01;96864.25;1729950;82;21282;-73
2020/12/09 04:39:59;;;;;;;13.73;8.73;;;;;;;-0.51;82.79;96865.50;1745895;81;21120;-74
2020/12/09 04:42:27;;;;;;;11.13;7.77;;;;;;;-0.48;82.74;96851.97;1760081;81;21286;-76
2020/12/09 04:44:56;;;;;;;13.00;8.40;;;;;;;-0.46;82.74;96863.56;1760862;81;21281;-76
2020/12/09 04:47:29;;;;;;;9.27;6.07;;;;;;;-0.47;82.83;96867.05;1759752;80;21118;-73
2020/12/09 04:50:06;;;;;;;13.40;7.47;;;;;;;-0.42;82.68;96878.08;1760869;81;21160;-74
2020/12/09 04:52:59;;;;;;;12.23;6.67;;;;;;;-0.45;82.66;96870.86;1781033;80;21562;-75
2020/12/09 04:55:26;;;;;;;10.07;6.23;;;;;;;-0.45;82.73;96862.66;1778662;80;21643;-74
2020/12/09 04:58:03;;;;;;;13.07;8.70;;;;;;;-0.46;82.74;96860.97;1735317;81;21114;-75
2020/12/09 05:00:32;;;;;;;15.48;8.50;;;;;;;-0.47;82.72;96860.58;1770362;80;21112;-74
2020/12/09 05:03:09;;;;;;;14.20;9.07;;;;;;;-0.44;82.72;96856.58;1740087;80;21592;-74
2020/12/09 05:05:37;;;;;;;14.07;9.57;;;;;;;-0.43;82.64;96858.27;1768188;80;21156;-74
2020/12/09 05:08:15;;;;;;;14.25;9.33;;;;;;;-0.39;82.68;96867.58;1760480;81;21152;-74
2020/12/09 05:10:51;;;;;;;13.93;9.00;;;;;;;-0.33;82.55;96873.83;1768430;80;21135;-73
2020/12/09 05:13:22;;;;;;;;;;;;;;;-0.28;82.39;96876.67;1794566;80;21128;-74
2020/12/09 05:15:58;;;;;;;11.38;8.38;;;;;;;-0.25;82.13;96879.15;1779204;80;20140;-76
2020/12/09 05:18:36;;;;;;;14.23;8.60;;;;;;;-0.23;82.07;96874.76;1759798;80;21154;-75
2020/12/09 05:21:17;;;;;;;13.67;9.33;;;;;;;-0.18;82.15;96876.23;1758493;81;21126;-75
2020/12/09 05:23:49;;;;;;;15.85;10.55;;;;;;;-0.12;81.94;96876.90;1740338;81;21160;-75
2020/12/09 05:26:32;;;;;;;17.93;11.30;;;;;;;-0.09;81.67;96876.78;1760373;81;21129;-76
2020/12/09 05:29:16;;;;;;;21.70;12.40;;;;;;;-0.15;81.48;96877.88;1760756;81;21145;-72
2020/12/09 05:31:48;;;;;;;18.10;10.45;;;;;;;-0.18;81.35;96880.58;1772118;80;21120;-75
2020/12/09 05:34:29;;;;;;;20.68;11.65;;;;;;;-0.22;81.30;96883.75;1759470;80;21147;-73
2020/12/09 05:37:07;;;;;;;22.30;14.05;;;;;;;-0.27;81.12;96873.18;1760476;81;21419;-74
2020/12/09 05:40:13;;;;;;;23.73;14.47;;;;;;;-0.31;80.93;96862.10;1792924;79;24473;-73
2020/12/09 05:42:42;;;;;;;25.23;13.60;;;;;;;-0.41;80.98;96865.50;1561597;91;21222;-73
2020/12/09 05:45:11;;;;;;;22.58;13.45;;;;;;;-0.41;81.06;96869.84;1562777;91;21245;-72
2020/12/09 05:47:39;;;;;;;23.03;14.93;;;;;;;-0.45;81.04;96871.72;1540556;90;21509;-73
2020/12/09 05:50:07;;;;;;;13.50;8.67;;;;;;;-0.42;81.23;96874.63;1560498;91;21202;-73
2020/12/09 05:52:38;;;;;;;18.50;10.60;;;;;;;-0.47;81.50;96867.05;1562306;90;21217;-72
2020/12/09 05:55:05;;;;;;;16.87;10.33;;;;;;;-0.53;81.34;96866.00;1524358;93;21195;-72
2020/12/09 05:57:33;;;;;;;13.83;7.33;;;;;;;-0.56;81.36;96872.59;1520981;94;21227;-73
2020/12/09 06:00:01;;;;;;;11.37;7.07;;;;;;;-0.56;81.46;96877.77;1582773;90;21235;-73
2020/12/09 06:02:29;;;;;;;12.67;7.00;;;;;;;-0.60;81.75;96871.88;1586198;90;21633;-75
2020/12/09 06:05:00;;;;;;;12.10;7.07;;;;;;;-0.65;82.18;96874.64;1595827;88;21167;-72
2020/12/09 06:07:31;;;;;;;9.27;5.90;;;;;;;-0.69;82.56;96870.47;1574302;90;21181;-74
2020/12/09 06:10:16;;;;;;;13.23;9.37;;;;;;;-0.67;82.30;96875.61;1579608;90;21197;-72
2020/12/09 06:13:00;;;;;;;12.98;6.92;;;;;;;-0.70;82.24;96866.66;1575525;90;21200;-74
2020/12/09 06:15:32;;;;;;;13.27;8.77;;;;;;;-0.71;83.26;96870.14;1585743;90;21230;-73
2020/12/09 06:18:07;;;;;;;17.67;10.50;;;;;;;-0.68;82.19;96868.73;1585941;90;21191;-72
2020/12/09 06:20:38;;;;;;;19.05;10.68;;;;;;;-0.66;82.60;96882.47;1582714;90;21154;-73
2020/12/09 06:23:14;;;;;;;16.17;10.93;;;;;;;-0.60;82.25;96888.70;1564454;89;21206;-71
2020/12/09 06:25:43;;;;;;;18.47;11.73;;;;;;;-0.52;82.20;96892.30;1586107;90;21650;-71
2020/12/09 06:28:18;;;;;;;26.43;13.70;;;;;;;-0.46;81.90;96898.52;1586106;90;21185;-72
2020/12/09 06:30:47;;;;;;;18.47;11.17;;;;;;;-0.42;81.76;96897.51;1584946;90;21187;-74
2020/12/09 06:33:44;;;;;;;24.65;13.72;;;;;;;-0.35;81.55;96894.20;1586439;90;21204;-73
2020/12/09 06:36:27;;;;;;;20.72;12.88;;;;;;;-0.35;81.48;96899.37;1585156;90;21188;-72
2020/12/09 06:39:18;;;;;;;27.87;13.53;;;;;;;-0.38;81.27;96904.23;1575687;90;21240;-72
2020/12/09 06:42:03;;;;;;;22.57;13.23;;;;;;;-0.35;81.30;96889.02;1574506;90;21187;-72
2020/12/09 06:44:49;;;;;;;26.20;16.20;;;;;;;-0.33;81.29;96889.38;1494328;95;21325;-72
2020/12/09 06:47:30;;;;;;;28.35;17.15;;;;;;;-0.20;81.08;96903.97;1839605;77;24794;-73
2020/12/09 06:50:00;;;;;;;30.43;14.87;;;;;;;-0.20;81.00;96899.22;1795531;78;21095;-74
2020/12/09 06:52:35;;;;;;;27.62;15.60;;;;;;;-0.16;80.97;96896.91;1769969;78;21138;-73
2020/12/09 06:55:04;;;;;;;28.30;14.53;;;;;;;-0.15;80.66;96893.42;1814894;77;21568;-72
2020/12/09 06:57:40;;;;;;;23.67;13.20;;;;;;;-0.08;80.79;96897.44;1817357;78;21529;-70
2020/12/09 07:00:21;;;;;;;25.03;14.23;;;;;;;-0.01;80.71;96899.34;1814998;77;21176;-72
2020/12/09 07:02:52;;;;;;;26.10;16.07;;;;;;;0.01;79.98;96892.78;1816016;78;21163;-73
2020/12/09 07:05:30;;;;;;;33.10;15.03;;;;;;;0.01;80.08;96900.56;1811599;77;21207;-74
2020/12/09 07:08:04;;;;;;;26.13;15.00;;;;;;;-0.01;80.11;96893.69;1817091;78;21178;-73
2020/12/09 07:10:33;;;;;;;31.45;17.42;;;;;;;0.01;80.01;96892.32;1809723;77;21142;-73
2020/12/09 07:13:10;;;;;;;24.13;13.03;;;;;;;-0.03;79.76;96894.20;1821610;77;21125;-73
2020/12/09 07:15:47;;;;;;;19.17;10.80;;;;;;;-0.06;79.93;96893.05;1811868;78;21113;-72
2020/12/09 07:18:14;;;;;;;20.80;12.40;;;;;;;-0.03;80.48;96892.90;1811199;77;21169;-71
2020/12/09 07:20:42;;;;;;;19.70;12.10;;;;;;;0.10;80.69;96888.05;1807821;78;21156;-72
2020/12/09 07:23:10;;;;;;;17.98;9.98;;;;;;;0.33;81.06;96887.55;1795685;78;21145;-73
2020/12/09 07:25:38;;;;;;;24.55;12.28;;;;;;;0.49;80.56;96880.40;1800506;78;21143;-72
2020/12/09 07:28:05;;;;;;;22.35;13.30;;;;;;;0.64;80.73;96894.45;1799236;78;21844;-71
2020/12/09 07:30:35;;;;;;;24.23;12.53;;;;;;;0.80;80.56;96892.04;1813132;78;21137;-71
2020/12/09 07:33:02;;;;;;;21.80;11.30;;;;;;;0.94;80.26;96893.55;1810196;78;21113;-72
2020/12/09 07:35:30;;;;;;;30.90;15.93;;;;;;;1.06;80.20;96889.59;1803192;77;21164;-73
2020/12/09 07:37:59;;;;;;;21.85;13.08;;;;;;;1.32;80.31;96897.92;1817794;78;21274;-71
2020/12/09 07:40:31;;;;;;;31.30;18.82;;;;;;;1.61;80.20;96887.45;1814905;77;21544;-73
2020/12/09 07:43:09;;;;;;;14.90;8.80;;;;;;;1.87;79.73;96885.36;1805850;78;21131;-72
2020/12/09 07:45:43;;;;;;;9.30;6.87;;;;;;;2.08;77.96;96886.53;1748676;80;21162;-72
2020/12/09 07:48:17;;;;;;;10.60;5.73;;;;;;;2.34;78.46;96889.14;1745995;80;21113;-71
2020/12/09 07:50:51;;;;;;;8.25;6.08;;;;;;;2.57;78.04;96891.01;1764121;80;21600;-73
2020/12/09 07:53:19;;;;;;;9.13;5.97;;;;;;;2.80;78.39;96898.48;1775162;79;21196;-72
2020/12/09 07:55:47;;;;;;;10.78;5.70;;;;;;;3.03;76.07;96899.50;1753261;81;21194;-74
2020/12/09 07:58:18;;;;;;;9.85;6.12;;;;;;;3.18;76.74;96892.16;1758127;81;21148;-75
2020/12/09 08:00:48;;;;;;;9.78;6.42;;;;;;;3.38;77.11;96896.31;1751489;81;21127;-75
2020/12/09 08:03:22;;;;;;;8.80;5.60;;;;;;;3.49;75.58;96893.11;1751663;80;22325;-72
2020/12/09 08:05:52;;;;;;;9.00;5.92;;;;;;;3.51;74.68;96891.71;1754497;79;21548;-72
2020/12/09 08:08:21;;;;;;;8.73;6.00;;;;;;;3.60;75.64;96893.80;1754009;81;21175;-72
2020/12/09 08:10:51;;;;;;;12.73;7.75;;;;;;;3.74;75.35;96894.34;1753844;81;21632;-72
2020/12/09 08:13:25;;;;;;;14.15;8.65;;;;;;;3.86;72.46;96892.81;1752493;81;21186;-72
2020/12/09 08:16:14;;;;;;;9.43;6.33;;;;;;;3.96;74.08;96891.36;1757378;81;21128;-71
2020/12/09 08:18:43;;;;;;;12.33;6.72;;;;;;;4.01;73.44;96890.66;1751312;81;21659;-72
2020/12/09 08:21:12;;;;;;;14.45;5.55;;;;;;;4.06;73.56;96890.39;1769875;81;21140;-73
2020/12/09 08:23:48;;;;;;;10.25;5.80;;;;;;;4.07;73.09;96894.68;1763611;81;21121;-72
2020/12/09 08:26:33;;;;;;;8.85;6.10;;;;;;;4.15;72.97;96889.86;1780290;80;21576;-73
2020/12/09 08:29:05;;;;;;;9.13;6.12;;;;;;;4.24;71.16;96888.95;1761887;80;21189;-71
2020/12/09 08:31:34;;;;;;;7.90;4.67;;;;;;;4.29;72.92;96884.29;1760093;80;21223;-72
2020/12/09 08:34:12;;;;;;;8.40;4.70;;;;;;;4.35;72.41;96894.39;1755716;79;21536;-72
2020/12/09 08:36:43;;;;;;;6.92;4.17;;;;;;;4.33;71.81;96902.77;1759300;79;21178;-72
2020/12/09 08:39:11;;;;;;;8.58;5.42;;;;;;;4.28;71.28;96893.90;1752134;81;21167;-73
2020/12/09 08:41:39;;;;;;;9.10;6.47;;;;;;;4.21;70.65;96889.97;1752012;81;21127;-73
2020/12/09 08:44:07;;;;;;;8.55;5.97;;;;;;;4.12;70.85;96889.20;1759001;81;21098;-76
2020/12/09 08:46:35;;;;;;;7.78;5.85;;;;;;;4.18;71.83;96885.75;1751445;81;21183;-74
2020/12/09 08:49:04;;;;;;;11.57;6.50;;;;;;;4.17;71.13;96885.84;1750761;81;21167;-74
2020/12/09 08:51:34;;;;;;;13.78;7.62;;;;;;;4.24;71.88;96891.08;1804491;77;21117;-73
2020/12/09 08:54:07;;;;;;;7.53;4.12;;;;;;;4.26;70.70;96894.45;1804948;79;21572;-74
2020/12/09 08:56:35;;;;;;;8.05;4.83;;;;;;;4.27;70.57;96881.78;1735707;82;21169;-73
2020/12/09 08:59:03;;;;;;;9.83;6.45;;;;;;;4.32;70.57;96874.51;1807496;79;21121;-72
2020/12/09 09:01:36;;;;;;;11.55;5.90;;;;;;;4.41;70.86;96877.53;1804476;77;21165;-72
2020/12/09 09:04:07;;;;;;;9.53;5.35;;;;;;;4.46;68.82;96867.65;1808654;77;21152;-71
2020/12/09 09:06:34;;;;;;;6.20;3.87;;;;;;;4.55;70.48;96863.19;1806010;77;21113;-73
2020/12/09 09:09:03;;;;;;;7.70;3.72;;;;;;;4.59;69.34;96861.23;1801339;79;21201;-72
2020/12/09 09:11:31;;;;;;;9.20;5.08;;;;;;;4.56;69.65;96867.48;1806907;77;21148;-73
2020/12/09 09:13:59;;;;;;;7.05;4.70;;;;;;;4.61;69.52;96864.59;1802542;79;21539;-73
2020/12/09 09:16:26;;;;;;;6.97;3.40;;;;;;;4.65;69.32;96861.70;1806498;78;21157;-73
2020/12/09 09:18:54;;;;;;;6.92;3.52;;;;;;;4.77;68.75;96864.52;1812052;79;21170;-72
2020/12/09 09:21:21;;;;;;;5.30;3.70;;;;;;;4.83;69.48;96862.34;1802926;77;21117;-72
2020/12/09 09:23:49;;;;;;;6.28;3.60;;;;;;;4.93;66.81;96857.87;1803848;79;21149;-74
2020/12/09 09:26:17;;;;;;;4.53;3.25;;;;;;;5.03;67.17;96849.02;1801695;79;21131;-73
2020/12/09 09:28:45;;;;;;;6.78;3.72;;;;;;;5.15;67.84;96854.31;1803002;78;21177;-72
2020/12/09 09:31:13;;;;;;;5.62;3.42;;;;;;;5.23;68.06;96851.69;1805609;79;22150;-73
2020/12/09 09:33:40;;;;;;;4.85;3.15;;;;;;;5.07;67.81;96813.91;1802748;79;21582;-74
2020/12/09 09:36:08;;;;;;;4.67;3.33;;;;;;;5.30;65.00;96852.97;1802295;78;21097;-73
2020/12/09 09:38:35;;;;;;;5.78;3.92;;;;;;;5.34;66.26;96853.16;1804925;79;21618;-74
2020/12/09 09:41:03;;;;;;;7.42;3.55;;;;;;;5.39;67.10;96847.16;1803684;78;21511;-73
2020/12/09 09:43:30;;;;;;;4.42;2.75;;;;;;;5.43;66.08;96849.11;1807100;77;21148;-72
2020/12/09 09:45:59;;;;;;;6.67;3.30;;;;;;;5.40;65.72;96838.87;1802875;79;21149;-72
2020/12/09 09:48:27;;;;;;;7.28;3.37;;;;;;;5.45;65.60;96836.79;1802783;79;21156;-73
2020/12/09 09:50:54;;;;;;;5.97;3.40;;;;;;;5.47;65.14;96846.69;1803713;79;21150;-73
2020/12/09 09:53:23;;;;;;;6.72;3.33;;;;;;;5.50;66.26;96837.80;1800507;79;21743;-72
2020/12/09 09:55:51;;;;;;;3.95;2.45;;;;;;;5.56;65.90;96835.64;1811337;79;21132;-73
2020/12/09 09:58:20;;;;;;;5.87;3.40;;;;;;;5.61;66.23;96827.50;1784215;78;21171;-72
2020/12/09 10:00:48;;;;;;;5.83;3.58;;;;;;;5.57;63.67;96830.79;1807124;79;21571;-72
2020/12/09 10:03:15;;;;;;;4.97;3.70;;;;;;;5.71;66.62;96819.44;1808532;79;21156;-74
2020/12/09 10:05:44;;;;;;;5.12;3.75;;;;;;;5.73;64.49;96821.94;1741645;82;21176;-73
2020/12/09 10:08:11;;;;;;;5.42;3.83;;;;;;;5.82;64.99;96823.13;1808470;79;21192;-74
2020/12/09 10:10:39;;;;;;;5.85;3.77;;;;;;;5.80;63.79;96821.91;1808360;79;21116;-73
2020/12/09 10:13:07;;;;;;;5.80;4.03;;;;;;;5.86;65.17;96814.98;1806984;79;21096;-74
2020/12/09 10:15:37;;;;;;;6.17;4.40;;;;;;;5.90;63.77;96822.16;1709579;82;21676;-74
2020/12/09 10:18:06;;;;;;;10.05;3.87;;;;;;;5.87;63.38;96808.81;1803478;79;21676;-72
2020/12/09 10:20:34;;;;;;;4.65;3.25;;;;;;;5.79;62.70;96808.48;1804280;79;21616;-73
2020/12/09 10:23:02;;;;;;;5.37;3.58;;;;;;;5.78;62.22;96815.47;1741411;82;21172;-73
2020/12/09 10:25:29;;;;;;;4.50;3.27;;;;;;;5.80;62.76;96803.59;1803063;79;21147;-74
2020/12/09 10:27:57;;;;;;;4.78;3.80;;;;;;;5.82;63.36;96808.74;1800064;79;21628;-74
2020/12/09 10:30:24;;;;;;;7.45;3.95;;;;;;;5.84;62.57;96806.87;1807513;78;21173;-73
2020/12/09 10:32:53;;;;;;;5.12;3.90;;;;;;;5.85;62.40;96808.07;1804690;77;21592;-75
2020/12/09 10:35:20;;;;;;;6.37;4.30;;;;;;;5.88;62.07;96803.95;1801459;77;21138;-73
2020/12/09 10:37:48;;;;;;;6.50;4.40;;;;;;;5.91;63.31;96802.91;1799604;77;21173;-74
2020/12/09 10:40:16;;;;;;;5.45;4.17;;;;;;;5.91;62.24;96798.98;1802787;77;21145;-74
2020/12/09 10:42:43;;;;;;;9.50;4.25;;;;;;;5.93;64.28;96791.39;1769330;80;21130;-76
2020/12/09 10:45:11;;;;;;;7.40;4.25;;;;;;;5.94;64.28;96781.75;1743958;80;21403;-74
2020/12/09 10:47:41;;;;;;;8.55;4.05;;;;;;;5.94;64.63;96784.37;1735567;82;21180;-75
2020/12/09 10:50:10;;;;;;;7.53;3.85;;;;;;;5.96;64.69;96776.44;1672409;84;21180;-73
2020/12/09 10:52:37;;;;;;;10.65;4.25;;;;;;;6.03;65.07;96770.70;1669208;84;21192;-75
2020/12/09 10:55:05;;;;;;;5.12;3.87;;;;;;;6.09;64.91;96763.77;1736059;82;21191;-73
2020/12/09 10:57:40;;;;;;;9.70;4.40;;;;;;;6.15;65.00;96766.90;1732034;81;21198;-76
2020/12/09 11:00:11;;;;;;;4.42;3.08;;;;;;;6.19;64.47;96765.77;1734363;81;21192;-74
2020/12/09 11:02:38;;;;;;;5.47;3.47;;;;;;;6.29;63.00;96770.75;1735936;81;21155;-76
2020/12/09 11:05:06;;;;;;;5.12;3.30;;;;;;;6.35;63.19;96765.56;1732124;82;21446;-75
2020/12/09 11:07:33;;;;;;;5.78;4.12;;;;;;;6.42;63.59;96774.67;1738387;81;21180;-75
2020/12/09 11:10:00;;;;;;;4.08;2.87;;;;;;;6.51;63.77;96770.10;1726748;81;21572;-76
2020/12/09 11:12:28;;;;;;;6.45;4.22;;;;;;;6.62;63.75;96770.66;1727943;83;21723;-75
2020/12/09 11:14:59;;;;;;;7.40;4.55;;;;;;;6.66;63.67;96773.45;1738784;81;21196;-74
2020/12/09 11:17:27;;;;;;;12.33;4.95;;;;;;;6.70;61.47;96772.27;1744623;82;21211;-74
2020/12/09 11:19:55;;;;;;;4.65;2.87;;;;;;;6.68;60.25;96773.33;1733134;81;21180;-73
2020/12/09 11:22:23;;;;;;;8.48;5.05;;;;;;;6.69;61.96;96764.05;1814875;79;21701;-73
2020/12/09 11:24:50;;;;;;;5.80;3.55;;;;;;;6.64;60.79;96775.33;1811691;79;21159;-75
2020/12/09 11:27:18;;;;;;;5.40;3.20;;;;;;;6.54;61.04;96780.34;1816530;79;21189;-74
2020/12/09 11:29:46;;;;;;;6.78;3.95;;;;;;;6.32;61.30;96767.07;1817774;79;21709;-74
2020/12/09 11:32:16;;;;;;;6.65;3.62;;;;;;;6.14;60.90;96766.08;1817402;79;21150;-75
2020/12/09 11:34:44;;;;;;;6.53;3.75;;;;;;;6.05;61.65;96754.44;1818067;78;21180;-74
2020/12/09 11:37:12;;;;;;;13.03;4.90;;;;;;;5.78;61.97;96757.11;1795633;78;21121;-74
2020/12/09 11:39:39;;;;;;;9.88;3.42;;;;;;;5.81;62.87;96747.73;1785754;80;21666;-74
2020/12/09 11:42:08;;;;;;;6.80;5.00;;;;;;;5.84;62.99;96754.08;1786919;79;21224;-73
2020/12/09 11:44:36;;;;;;;6.95;3.37;;;;;;;5.77;63.41;96748.41;1785696;80;21201;-73
2020/12/09 11:47:07;;;;;;;9.28;5.60;;;;;;;5.73;63.19;96751.33;1788326;80;21212;-75